Terminal Aerodrome Forecast
Issued by NWS Knoxville/Tri Cities, TN

Home | Current Version | Previous Version | Text Only | Print | Product List | Glossary On
Versions: 1 2 3 4 5 6 7 8 9 10 11 12 13
000
FTUS44 KMRX 261123
TAFTRI
TAF
KTRI 261123Z 2612/2712 15007KT 6SM -SHRA BKN050 OVC070
     FM261430 19011G17KT P6SM VCTS BKN050CB
     FM262100 20010KT P6SM VCSH BKN050
     FM270100 VRB02KT P6SM SCT060 BKN080
     FM270400 00000KT P6SM BKN040
     FM270900 00000KT 4SM BR SCT002 BKN035=

USA.gov is the U.S. government's official web portal to all federal, state and local government web resources and services.